createdAt,value
2018-11-29T00:04:30.802Z,101517.78
2018-11-29T00:09:37.864Z,101508.70
2018-11-29T00:14:40.012Z,101511.19
2018-11-29T00:19:42.164Z,101521.63
2018-11-29T00:24:44.285Z,101496.98
2018-11-29T00:29:46.381Z,101480.73
2018-11-29T00:34:48.496Z,101484.30
2018-11-29T00:39:50.636Z,101487.76
2018-11-29T00:44:52.762Z,101484.06
2018-11-29T00:49:54.905Z,101477.08
2018-11-29T00:54:57.013Z,101481.81
2018-11-29T00:59:59.142Z,101472.43
2018-11-29T01:05:01.253Z,101488.27
2018-11-29T01:10:11.511Z,101480.66
2018-11-29T01:15:14.498Z,101470.13
2018-11-29T01:20:19.155Z,101460.67
2018-11-29T01:25:21.264Z,101473.39
2018-11-29T01:30:23.386Z,101469.22
2018-11-29T01:35:25.515Z,101472.23
2018-11-29T01:40:27.672Z,101463.76
2018-11-29T01:45:29.809Z,101472.52
2018-11-29T01:50:31.940Z,101491.48
2018-11-29T01:55:34.074Z,101473.59
2018-11-29T02:00:36.193Z,101471.34
2018-11-29T02:05:38.296Z,101476.44
2018-11-29T02:10:46.499Z,101474.95
2018-11-29T02:15:48.613Z,101449.73
2018-11-29T02:20:50.702Z,101461.04
2018-11-29T02:25:52.914Z,101463.80
2018-11-29T02:30:55.022Z,101447.36
2018-11-29T02:35:57.141Z,101449.00
2018-11-29T02:40:59.323Z,101433.80
2018-11-29T02:46:01.492Z,101426.14
2018-11-29T02:51:03.595Z,101426.14
2018-11-29T02:56:05.743Z,101422.20
2018-11-29T03:01:07.873Z,101419.28
2018-11-29T03:06:10.006Z,101419.84
2018-11-29T03:11:12.137Z,101403.92
2018-11-29T03:16:14.271Z,101387.00
2018-11-29T03:21:16.380Z,101394.38
2018-11-29T03:26:18.495Z,101378.54
2018-11-29T03:31:20.614Z,101385.03
2018-11-29T03:36:22.717Z,101392.06
2018-11-29T03:41:24.839Z,101386.44
2018-11-29T03:46:26.964Z,101408.73
2018-11-29T03:51:29.109Z,101388.56
2018-11-29T03:56:31.213Z,101379.37
2018-11-29T04:01:33.377Z,101362.34
2018-11-29T04:06:35.486Z,101367.71
2018-11-29T04:11:37.645Z,101367.95
2018-11-29T04:16:39.784Z,101367.71
2018-11-29T04:21:41.890Z,101354.85
2018-11-29T04:26:44.005Z,101366.06
2018-11-29T04:31:46.110Z,101368.19
2018-11-29T04:36:48.200Z,101365.55
2018-11-29T04:41:50.355Z,101343.55
2018-11-29T04:46:52.720Z,101351.72
2018-11-29T04:51:54.862Z,101348.87
2018-11-29T04:56:56.979Z,101357.32
2018-11-29T05:01:59.113Z,101348.16
2018-11-29T05:07:01.212Z,101331.56
2018-11-29T05:12:03.360Z,101336.09
2018-11-29T05:17:05.489Z,101323.30
2018-11-29T05:22:07.605Z,101326.64
2018-11-29T05:27:09.710Z,101329.20
2018-11-29T05:32:11.823Z,101311.97
2018-11-29T05:37:13.970Z,101309.88
2018-11-29T05:42:16.135Z,101305.67
2018-11-29T05:47:18.244Z,101318.70
2018-11-29T05:52:20.366Z,101321.06
2018-11-29T05:57:22.494Z,101327.64
2018-11-29T06:02:24.656Z,101327.80
2018-11-29T06:07:26.775Z,101322.87
2018-11-29T06:12:28.872Z,101332.64
2018-11-29T06:17:30.993Z,101328.95
2018-11-29T06:22:33.109Z,101325.14
2018-11-29T06:27:35.304Z,101312.64
2018-11-29T06:32:37.436Z,101302.63
2018-11-29T06:37:39.541Z,101308.92
2018-11-29T06:42:41.741Z,101314.33
2018-11-29T06:47:43.989Z,101310.31
2018-11-29T06:52:47.279Z,101309.75
2018-11-29T06:57:49.765Z,101312.96
2018-11-29T07:02:51.892Z,101304.14
2018-11-29T07:07:54.047Z,101301.89
2018-11-29T07:12:56.175Z,101308.14
2018-11-29T07:17:58.312Z,101302.80
2018-11-29T07:23:00.428Z,101298.74
2018-11-29T07:28:02.589Z,101293.86
2018-11-29T07:33:04.894Z,101282.67
2018-11-29T07:38:07.029Z,101274.73
2018-11-29T07:43:09.190Z,101284.58
2018-11-29T07:48:11.324Z,101287.06
2018-11-29T07:53:13.464Z,101274.14
2018-11-29T07:58:15.585Z,101269.06
2018-11-29T08:03:17.704Z,101257.77
2018-11-29T08:08:19.834Z,101262.20
2018-11-29T08:13:21.954Z,101265.84
2018-11-29T08:18:24.119Z,101266.08
2018-11-29T08:23:26.247Z,101267.34
2018-11-29T08:28:28.363Z,101261.38
2018-11-29T08:33:30.517Z,101252.55
2018-11-29T08:38:32.644Z,101244.45
2018-11-29T08:43:34.878Z,101250.81
2018-11-29T08:48:36.998Z,101238.62
2018-11-29T08:53:39.129Z,101231.25
2018-11-29T08:58:41.258Z,101236.61
2018-11-29T09:03:43.388Z,101235.97
2018-11-29T09:08:45.522Z,101234.63
2018-11-29T09:13:47.650Z,101238.59
2018-11-29T09:18:49.755Z,101225.02
2018-11-29T09:23:51.966Z,101235.42
2018-11-29T09:28:54.083Z,101236.41
2018-11-29T09:33:56.229Z,101228.09
2018-11-29T09:38:58.339Z,101228.09
2018-11-29T09:44:00.507Z,101215.61
2018-11-29T09:49:02.618Z,101208.35
2018-11-29T09:54:04.854Z,101201.91
2018-11-29T09:59:06.981Z,101193.88
2018-11-29T10:04:09.121Z,101202.86
2018-11-29T10:09:11.273Z,101198.55
2018-11-29T10:14:13.395Z,101191.95
2018-11-29T10:19:15.538Z,101186.61
2018-11-29T10:24:17.662Z,101182.25
2018-11-29T10:29:19.776Z,101186.46
2018-11-29T10:34:21.924Z,101182.25
2018-11-29T10:39:24.021Z,101187.97
2018-11-29T10:44:26.194Z,101181.48
2018-11-29T10:49:28.336Z,101173.31
2018-11-29T10:54:30.462Z,101161.80
2018-11-29T10:59:32.609Z,101158.94
2018-11-29T11:04:34.715Z,101153.55
2018-11-29T11:09:36.841Z,101152.81
2018-11-29T11:14:39.022Z,101148.08
2018-11-29T11:19:41.233Z,101148.08
2018-11-29T11:24:43.373Z,101144.44
2018-11-29T11:29:45.507Z,101139.45
2018-11-29T11:34:47.650Z,101129.66
2018-11-29T11:39:49.797Z,101127.09
2018-11-29T11:44:51.999Z,101125.45
2018-11-29T11:49:54.541Z,101133.19
2018-11-29T11:54:56.714Z,101141.42
2018-11-29T11:59:58.825Z,101138.42
2018-11-29T12:05:00.954Z,101128.69
2018-11-29T12:10:03.121Z,101128.52
2018-11-29T12:15:07.503Z,101128.52
2018-11-29T12:20:15.444Z,101131.71
2018-11-29T12:25:19.660Z,101117.86
2018-11-29T12:30:32.249Z,101118.30
2018-11-29T12:35:34.381Z,101118.81
2018-11-29T12:40:36.528Z,101118.57
2018-11-29T12:45:38.748Z,101104.66
2018-11-29T12:50:40.872Z,101105.51
2018-11-29T12:55:43.922Z,101095.64
2018-11-29T13:00:46.030Z,101080.84
2018-11-29T13:05:48.168Z,101065.23
2018-11-29T13:10:50.644Z,101076.38
2018-11-29T13:15:52.818Z,101060.57
2018-11-29T13:21:02.017Z,101052.74
2018-11-29T13:26:04.321Z,101038.75
2018-11-29T13:31:06.464Z,101017.48
2018-11-29T13:36:08.571Z,101001.86
2018-11-29T13:41:10.690Z,101012.28
2018-11-29T13:46:12.876Z,100997.49
2018-11-29T13:51:15.020Z,100987.51
2018-11-29T13:56:17.202Z,100986.19
2018-11-29T14:01:19.342Z,100981.52
2018-11-29T14:06:21.475Z,100962.94
2018-11-29T14:11:23.590Z,100971.82
2018-11-29T14:16:25.767Z,100975.84
2018-11-29T14:21:27.929Z,100968.77
2018-11-29T14:26:30.074Z,100947.66
2018-11-29T14:31:32.254Z,100927.42
2018-11-29T14:36:34.425Z,100901.77
2018-11-29T14:41:36.597Z,100902.47
2018-11-29T14:46:38.770Z,100906.11
2018-11-29T14:51:48.035Z,100912.39
2018-11-29T14:56:43.014Z,100927.50
2018-11-29T15:01:45.165Z,100916.00
2018-11-29T15:06:47.337Z,100891.97
2018-11-29T15:11:49.482Z,100859.22
2018-11-29T15:16:51.605Z,100892.34
2018-11-29T15:21:53.738Z,100885.27
2018-11-29T15:26:55.857Z,100883.79
2018-11-29T15:31:57.976Z,100894.42
2018-11-29T15:37:00.142Z,100896.08
2018-11-29T15:42:02.326Z,100871.69
2018-11-29T15:47:04.592Z,100874.03
2018-11-29T15:52:06.690Z,100865.17
2018-11-29T15:57:08.848Z,100863.77
2018-11-29T16:02:10.980Z,100864.83
2018-11-29T16:07:14.074Z,100864.36
2018-11-29T16:12:16.173Z,100872.82
2018-11-29T16:17:18.317Z,100869.67
2018-11-29T16:22:20.485Z,100856.91
2018-11-29T16:27:22.626Z,100846.58
2018-11-29T16:32:24.736Z,100845.98
2018-11-29T16:37:26.866Z,100849.16
2018-11-29T16:42:29.035Z,100854.06
2018-11-29T16:47:31.215Z,100843.86
2018-11-29T16:52:33.351Z,100833.59
2018-11-29T16:57:35.569Z,100830.06
2018-11-29T17:02:37.753Z,100802.66
2018-11-29T17:07:39.921Z,100810.68
2018-11-29T17:12:43.610Z,100804.74
2018-11-29T17:17:45.733Z,100795.59
2018-11-29T17:22:48.845Z,100788.31
2018-11-29T17:27:51.033Z,100789.46
2018-11-29T17:32:54.301Z,100780.55
2018-11-29T17:37:57.574Z,100776.83
2018-11-29T17:43:00.276Z,100776.98
2018-11-29T17:48:11.537Z,100784.69
2018-11-29T17:53:13.725Z,100773.34
2018-11-29T17:58:15.900Z,100764.12
2018-11-29T18:03:19.635Z,100751.55
2018-11-29T18:08:21.793Z,100769.11
2018-11-29T18:13:27.671Z,100762.86
2018-11-29T18:18:29.896Z,100752.88
2018-11-29T18:23:32.095Z,100727.81
2018-11-29T18:28:34.261Z,100729.72
2018-11-29T18:33:36.577Z,100730.09
2018-11-29T18:38:38.740Z,100720.11
2018-11-29T18:43:40.991Z,100699.17
2018-11-29T18:48:43.330Z,100690.64
2018-11-29T18:53:45.624Z,100701.11
2018-11-29T18:58:47.726Z,100702.46
2018-11-29T19:03:50.299Z,100695.55
2018-11-29T19:08:52.953Z,100701.87
2018-11-29T19:13:55.137Z,100693.14
2018-11-29T19:18:57.494Z,100684.28
2018-11-29T19:23:59.962Z,100716.88
2018-11-29T19:29:02.328Z,100747.71
2018-11-29T19:34:06.824Z,100727.91
2018-11-29T19:39:11.333Z,100730.12
2018-11-29T19:44:15.758Z,100718.68
2018-11-29T19:49:21.334Z,100729.75
2018-11-29T19:54:27.043Z,100731.58
2018-11-29T19:59:31.793Z,100731.09
2018-11-29T20:04:37.494Z,100722.35
2018-11-29T20:09:43.565Z,100736.39
2018-11-29T20:14:47.331Z,100698.49
2018-11-29T20:19:53.059Z,100716.19
2018-11-29T20:24:59.203Z,100737.44
2018-11-29T20:30:05.266Z,100738.77
2018-11-29T20:35:10.154Z,100739.27
2018-11-29T20:40:20.079Z,100733.69
2018-11-29T20:45:37.532Z,100732.34
2018-11-29T20:50:41.573Z,100728.59
2018-11-29T20:55:46.394Z,100751.93
2018-11-29T21:00:51.434Z,100763.84
2018-11-29T21:05:56.601Z,100746.73
2018-11-29T21:11:00.146Z,100744.61
2018-11-29T21:16:04.246Z,100746.27
2018-11-29T21:21:08.326Z,100737.11
2018-11-29T21:26:10.741Z,100743.18
2018-11-29T21:31:12.912Z,100748.56
2018-11-29T21:36:15.088Z,100734.42
2018-11-29T21:41:17.253Z,100745.10
2018-11-29T21:46:19.404Z,100733.17
2018-11-29T21:51:21.610Z,100743.17
2018-11-29T21:56:23.791Z,100737.47
2018-11-29T22:01:25.985Z,100730.45
2018-11-29T22:06:28.171Z,100713.17
2018-11-29T22:11:30.479Z,100720.47
2018-11-29T22:16:32.663Z,100707.89
2018-11-29T22:21:34.828Z,100713.48
2018-11-29T22:26:37.048Z,100709.73
2018-11-29T22:31:39.249Z,100709.06
2018-11-29T22:36:41.429Z,100697.44
2018-11-29T22:41:43.626Z,100708.11
2018-11-29T22:46:45.756Z,100715.03
2018-11-29T22:51:47.939Z,100690.91
2018-11-29T22:56:50.097Z,100684.66
2018-11-29T23:01:52.255Z,100680.41
2018-11-29T23:06:54.416Z,100707.65
2018-11-29T23:11:56.577Z,100718.69
2018-11-29T23:16:58.770Z,100712.03
2018-11-29T23:22:00.941Z,100712.01
2018-11-29T23:27:03.105Z,100707.20
2018-11-29T23:32:05.262Z,100714.30
2018-11-29T23:37:07.413Z,100705.07
2018-11-29T23:42:09.576Z,100709.28
2018-11-29T23:47:11.746Z,100682.35
2018-11-29T23:52:13.908Z,100673.90
2018-11-29T23:57:16.070Z,100681.39
